Time;durP1;ratioP1;P1;durP2;ratioP2;P2;SDS_P1;SDS_P2;PMS_P1;PMS_P2;Temp;Humidity;BMP_temperature;BMP_pressure;BME280_temperature;BME280_humidity;BME280_pressure;Samples;Min_cycle;Max_cycle;Signal;HPM_P1;HPM_P2
2023/03/13 00:01:18;;;;;;;18.55;3.05;;;9.10;99.90;;;;;;4993826;28;20036;-75
2023/03/13 00:03:45;;;;;;;10.25;1.83;;;9.00;99.90;;;;;;5011984;28;20032;-76
2023/03/13 00:06:11;;;;;;;10.60;2.08;;;9.00;99.90;;;;;;5014310;28;20427;-76
2023/03/13 00:08:38;;;;;;;14.35;3.00;;;9.00;99.90;;;;;;5000198;28;21885;-77
2023/03/13 00:11:08;;;;;;;20.35;3.15;;;9.00;99.90;;;;;;5010684;28;20048;-76
2023/03/13 00:13:35;;;;;;;31.75;4.07;;;9.00;99.90;;;;;;5008555;28;20600;-77
2023/03/13 00:16:10;;;;;;;21.05;3.88;;;9.00;99.90;;;;;;5011686;28;20033;-77
2023/03/13 00:18:37;;;;;;;22.75;4.43;;;9.00;99.90;;;;;;4996968;28;20423;-76
2023/03/13 00:21:06;;;;;;;27.50;4.38;;;9.00;99.90;;;;;;5009075;28;21004;-77
2023/03/13 00:23:34;;;;;;;16.65;3.35;;;9.00;99.90;;;;;;5010208;28;20081;-75
2023/03/13 00:26:04;;;;;;;21.17;3.25;;;9.00;99.90;;;;;;5028902;28;20395;-74
2023/03/13 00:28:32;;;;;;;22.88;4.00;;;9.00;99.90;;;;;;5001054;28;20037;-76
2023/03/13 00:31:01;;;;;;;18.27;3.28;;;9.00;99.90;;;;;;4994616;28;20053;-75
2023/03/13 00:33:27;;;;;;;22.05;3.05;;;9.00;99.90;;;;;;5018703;28;20041;-75
2023/03/13 00:35:59;;;;;;;17.38;3.28;;;9.00;99.90;;;;;;5018573;28;20443;-76
2023/03/13 00:38:27;;;;;;;14.27;2.30;;;9.00;99.90;;;;;;5004403;28;20036;-77
2023/03/13 00:41:05;;;;;;;16.17;2.28;;;9.00;99.90;;;;;;5009901;28;20064;-76
2023/03/13 00:43:34;;;;;;;23.98;4.55;;;9.00;99.90;;;;;;5012947;28;20028;-77
2023/03/13 00:46:00;;;;;;;21.70;3.85;;;9.00;99.90;;;;;;5018794;28;20500;-76
2023/03/13 00:48:27;;;;;;;25.83;4.40;;;9.00;99.90;;;;;;4978107;28;20350;-75
2023/03/13 00:50:53;;;;;;;29.88;4.85;;;9.00;99.90;;;;;;5013633;28;21312;-77
2023/03/13 00:53:20;;;;;;;22.20;3.85;;;9.00;99.90;;;;;;4993495;28;20468;-76
2023/03/13 00:55:58;;;;;;;24.80;3.67;;;9.00;99.90;;;;;;5011542;28;20045;-77
2023/03/13 00:58:26;;;;;;;25.27;4.05;;;9.00;99.90;;;;;;4971006;28;20053;-76
2023/03/13 01:00:53;;;;;;;21.30;3.40;;;9.00;99.90;;;;;;5002721;28;20419;-77
2023/03/13 01:03:24;;;;;;;29.52;4.00;;;9.00;99.90;;;;;;4993881;28;20048;-76
2023/03/13 01:06:01;;;;;;;23.38;4.15;;;9.00;99.90;;;;;;5009805;28;20476;-77
2023/03/13 01:08:28;;;;;;;21.42;3.10;;;9.00;99.90;;;;;;5004757;28;20049;-77
2023/03/13 01:11:06;;;;;;;21.92;2.72;;;9.00;99.90;;;;;;5010372;28;20512;-77
2023/03/13 01:13:33;;;;;;;32.08;5.07;;;9.00;99.90;;;;;;5009691;28;20044;-77
2023/03/13 01:16:05;;;;;;;25.50;5.65;;;9.00;99.90;;;;;;4993769;28;20041;-76
2023/03/13 01:18:37;;;;;;;19.35;3.80;;;9.00;99.90;;;;;;4997775;28;20377;-77
2023/03/13 01:21:05;;;;;;;20.25;3.80;;;8.90;99.90;;;;;;4990918;28;20040;-77
2023/03/13 01:23:31;;;;;;;26.95;4.68;;;9.00;99.90;;;;;;5007410;28;20041;-77
2023/03/13 01:25:57;;;;;;;29.27;5.68;;;9.00;99.90;;;;;;4992873;28;20507;-76
2023/03/13 01:28:25;;;;;;;21.52;4.25;;;9.00;99.90;;;;;;4985046;28;20648;-76
2023/03/13 01:30:52;;;;;;;18.80;3.53;;;9.00;99.90;;;;;;4996904;28;20036;-76
2023/03/13 01:33:18;;;;;;;22.05;4.85;;;9.00;99.90;;;;;;4991782;28;20048;-76
2023/03/13 01:35:46;;;;;;;27.05;5.38;;;9.10;99.90;;;;;;5023151;28;20060;-77
2023/03/13 01:38:13;;;;;;;25.25;5.13;;;9.10;99.90;;;;;;4992181;28;20056;-77
2023/03/13 01:40:45;;;;;;;31.80;5.90;;;9.10;99.90;;;;;;5006993;28;20285;-78
2023/03/13 01:43:24;;;;;;;26.65;5.82;;;9.10;99.90;;;;;;5011269;28;20447;-78
2023/03/13 01:45:59;;;;;;;29.58;6.43;;;9.10;99.90;;;;;;5011779;28;20025;-78
2023/03/13 01:48:39;;;;;;;25.80;7.38;;;9.10;99.90;;;;;;4995400;28;20848;-77
2023/03/13 01:51:17;;;;;;;24.83;5.60;;;9.10;99.90;;;;;;5012112;28;20056;-78
2023/03/13 01:53:47;;;;;;;25.00;5.13;;;9.20;99.90;;;;;;5005081;28;20060;-77
2023/03/13 01:56:21;;;;;;;32.70;7.18;;;9.20;99.90;;;;;;5011595;28;20610;-79
2023/03/13 01:58:50;;;;;;;20.83;5.57;;;9.20;99.90;;;;;;4998451;28;20045;-76
2023/03/13 02:01:18;;;;;;;16.75;5.20;;;9.20;99.90;;;;;;4992635;28;20041;-79
2023/03/13 02:03:47;;;;;;;17.35;5.82;;;9.20;99.90;;;;;;5010939;28;20961;-78
2023/03/13 02:06:13;;;;;;;20.30;6.45;;;9.30;99.90;;;;;;5013587;28;20768;-77
2023/03/13 02:09:04;;;;;;;27.73;6.72;;;9.30;99.90;;;;;;5026001;28;20036;-78
2023/03/13 02:11:51;;;;;;;25.70;6.68;;;9.30;99.90;;;;;;5001415;28;20443;-78
2023/03/13 02:14:20;;;;;;;19.73;7.13;;;9.30;99.90;;;;;;5013326;28;20053;-78
2023/03/13 02:16:50;;;;;;;23.20;5.78;;;9.30;99.90;;;;;;4997909;28;20045;-78
2023/03/13 02:19:44;;;;;;;24.50;6.05;;;9.40;99.90;;;;;;4993759;28;20037;-78
2023/03/13 02:22:38;;;;;;;21.15;5.57;;;9.40;99.90;;;;;;4989537;28;20049;-78
2023/03/13 02:25:10;;;;;;;25.65;6.60;;;9.40;99.90;;;;;;5005644;28;20046;-77
2023/03/13 02:27:36;;;;;;;17.80;5.75;;;9.40;99.90;;;;;;5014051;28;20037;-77
2023/03/13 02:30:05;;;;;;;19.27;6.82;;;9.40;99.90;;;;;;5001403;28;20503;-76
2023/03/13 02:32:32;;;;;;;19.13;6.65;;;9.50;99.90;;;;;;4993042;28;22176;-78
2023/03/13 02:35:07;;;;;;;19.42;6.93;;;9.50;99.90;;;;;;5011964;28;20037;-79
2023/03/13 02:37:34;;;;;;;15.98;6.35;;;9.50;99.90;;;;;;4995483;28;20056;-77
2023/03/13 02:40:08;;;;;;;16.50;7.03;;;9.60;99.90;;;;;;5010488;28;20408;-77
2023/03/13 02:42:39;;;;;;;17.58;7.85;;;9.60;99.90;;;;;;4984263;28;20041;-77
2023/03/13 02:45:06;;;;;;;14.85;7.07;;;9.60;99.90;;;;;;4999018;28;20052;-76
2023/03/13 02:47:33;;;;;;;19.15;7.93;;;9.60;99.90;;;;;;4996205;28;20045;-76
2023/03/13 02:49:59;;;;;;;20.38;8.40;;;9.70;99.90;;;;;;5004757;28;20980;-77
2023/03/13 02:52:29;;;;;;;24.80;9.35;;;9.70;99.90;;;;;;5030365;28;20401;-78
2023/03/13 02:55:09;;;;;;;22.85;10.32;;;9.80;99.90;;;;;;5014045;28;20603;-77
2023/03/13 02:57:35;;;;;;;17.98;8.93;;;9.80;99.90;;;;;;5011520;28;20496;-76
2023/03/13 03:00:05;;;;;;;18.65;8.98;;;9.80;99.90;;;;;;5004272;28;20052;-77
2023/03/13 03:02:32;;;;;;;22.33;9.38;;;9.80;99.90;;;;;;5009771;28;20049;-78
2023/03/13 03:04:58;;;;;;;16.27;9.23;;;9.80;99.90;;;;;;5035733;28;20048;-78
2023/03/13 03:07:25;;;;;;;22.23;11.10;;;9.90;99.90;;;;;;5017540;28;20052;-78
2023/03/13 03:09:52;;;;;;;24.42;12.82;;;9.90;99.90;;;;;;5003322;28;20055;-77
2023/03/13 03:12:20;;;;;;;19.27;10.90;;;9.90;99.90;;;;;;4984268;28;20037;-76
2023/03/13 03:14:47;;;;;;;30.27;14.10;;;10.00;99.90;;;;;;5011802;28;20162;-78
2023/03/13 03:17:14;;;;;;;21.70;12.93;;;10.00;99.90;;;;;;5002976;28;20052;-78
2023/03/13 03:19:40;;;;;;;22.45;12.55;;;10.10;99.90;;;;;;4991478;28;20056;-77
2023/03/13 03:22:08;;;;;;;22.90;11.93;;;10.10;99.90;;;;;;4981627;28;20741;-77
2023/03/13 03:24:35;;;;;;;23.35;12.02;;;10.10;99.90;;;;;;4995492;28;20528;-76
2023/03/13 03:27:03;;;;;;;26.45;12.55;;;10.20;99.90;;;;;;4994547;28;20041;-78
2023/03/13 03:29:36;;;;;;;24.98;13.02;;;10.20;99.90;;;;;;4987304;28;20048;-76
2023/03/13 03:32:03;;;;;;;20.70;12.48;;;10.20;99.90;;;;;;4996335;28;20037;-76
2023/03/13 03:34:31;;;;;;;21.75;13.02;;;10.30;99.90;;;;;;4995808;28;20049;-78
2023/03/13 03:36:58;;;;;;;20.02;12.20;;;10.30;99.90;;;;;;5012277;28;20052;-76
2023/03/13 03:39:27;;;;;;;23.48;12.93;;;10.40;99.90;;;;;;4993622;28;20060;-76
2023/03/13 03:41:54;;;;;;;24.42;13.05;;;10.40;99.90;;;;;;4979919;28;20408;-76
2023/03/13 03:44:21;;;;;;;28.15;15.15;;;10.40;99.90;;;;;;5012320;28;20409;-77
2023/03/13 03:46:52;;;;;;;27.85;13.68;;;10.50;99.90;;;;;;5015511;28;20045;-77
2023/03/13 03:49:19;;;;;;;23.20;13.20;;;10.50;99.90;;;;;;5001565;28;20049;-76
2023/03/13 03:51:47;;;;;;;20.67;12.23;;;10.50;99.90;;;;;;5010021;28;20041;-78
2023/03/13 03:54:14;;;;;;;19.80;11.30;;;10.60;99.90;;;;;;5029443;28;20492;-76
2023/03/13 03:56:41;;;;;;;20.35;11.88;;;10.60;99.90;;;;;;4998384;28;20053;-76
2023/03/13 03:59:07;;;;;;;21.13;12.55;;;10.60;99.90;;;;;;5004498;28;21708;-77
2023/03/13 04:01:54;;;;;;;25.65;13.43;;;10.60;99.90;;;;;;5005961;28;20051;-77
2023/03/13 04:04:23;;;;;;;22.38;12.25;;;10.70;99.90;;;;;;4979933;28;20063;-77
2023/03/13 04:06:56;;;;;;;21.70;12.02;;;10.70;99.90;;;;;;5007168;28;20029;-77
2023/03/13 04:09:22;;;;;;;17.20;11.05;;;10.70;99.90;;;;;;4986182;28;20716;-77
2023/03/13 04:11:48;;;;;;;18.33;11.13;;;10.70;99.90;;;;;;5008055;28;20455;-76
2023/03/13 04:14:15;;;;;;;15.43;10.93;;;10.80;99.90;;;;;;5001278;28;20043;-75
2023/03/13 04:16:42;;;;;;;18.33;11.20;;;10.80;99.90;;;;;;4991584;28;20384;-77
2023/03/13 04:19:08;;;;;;;23.27;13.32;;;10.80;99.90;;;;;;4998785;28;20049;-76
2023/03/13 04:21:35;;;;;;;18.52;12.38;;;10.80;99.90;;;;;;4995356;28;20033;-77
2023/03/13 04:24:09;;;;;;;24.90;12.88;;;10.80;99.90;;;;;;4990289;28;20060;-78
2023/03/13 04:26:37;;;;;;;26.13;12.68;;;10.90;99.90;;;;;;5010445;28;20061;-75
2023/03/13 04:29:05;;;;;;;18.60;12.10;;;10.90;99.90;;;;;;5009067;28;20040;-75
2023/03/13 04:32:01;;;;;;;19.42;12.02;;;10.90;99.90;;;;;;5003848;28;20045;-76
2023/03/13 04:34:41;;;;;;;19.98;12.50;;;10.90;99.90;;;;;;5007601;28;20393;-75
2023/03/13 04:37:20;;;;;;;26.45;16.33;;;10.90;99.90;;;;;;5009029;28;20041;-76
2023/03/13 04:39:58;;;;;;;19.30;13.75;;;11.00;99.90;;;;;;4990974;28;20037;-76
2023/03/13 04:42:59;;;;;;;20.13;12.38;;;11.00;99.90;;;;;;5002883;28;21703;-76
2023/03/13 04:45:46;;;;;;;20.70;13.30;;;11.00;99.90;;;;;;4995483;28;20495;-77
2023/03/13 04:48:23;;;;;;;19.35;12.98;;;11.00;99.90;;;;;;5004128;28;20037;-75
2023/03/13 04:50:59;;;;;;;22.25;14.98;;;11.10;99.90;;;;;;4992938;28;20029;-77
2023/03/13 04:53:48;;;;;;;19.13;13.38;;;11.10;99.90;;;;;;4995314;28;20060;-79
2023/03/13 04:56:40;;;;;;;25.60;16.58;;;11.10;99.90;;;;;;5010349;28;20053;-77
2023/03/13 04:59:24;;;;;;;22.48;15.45;;;11.20;99.90;;;;;;5003596;28;20049;-76
2023/03/13 05:02:00;;;;;;;23.27;15.05;;;11.20;99.90;;;;;;5009545;28;21143;-75
2023/03/13 05:04:46;;;;;;;18.85;14.02;;;11.20;99.90;;;;;;5009019;28;20053;-76
2023/03/13 05:07:31;;;;;;;20.15;13.25;;;11.30;99.90;;;;;;5010077;28;20064;-76
2023/03/13 05:10:23;;;;;;;23.52;16.00;;;11.30;99.90;;;;;;5004133;28;20076;-75
2023/03/13 05:13:08;;;;;;;22.50;14.15;;;11.30;99.90;;;;;;5010163;28;20150;-76
2023/03/13 05:15:45;;;;;;;19.27;12.85;;;11.30;99.90;;;;;;5008979;28;20126;-75
2023/03/13 05:18:30;;;;;;;23.13;14.75;;;11.30;99.90;;;;;;5002536;28;20033;-76
2023/03/13 05:21:16;;;;;;;22.92;15.13;;;11.30;99.90;;;;;;4997698;28;20052;-77
2023/03/13 05:23:52;;;;;;;24.00;15.05;;;11.30;99.90;;;;;;5010739;28;20049;-77
2023/03/13 05:26:44;;;;;;;23.02;14.10;;;11.30;99.90;;;;;;5005353;28;20049;-76
2023/03/13 05:29:23;;;;;;;23.02;15.13;;;11.30;99.90;;;;;;4998586;28;20072;-76
2023/03/13 05:32:08;;;;;;;26.50;15.65;;;11.30;99.90;;;;;;5008165;28;20068;-76
2023/03/13 05:35:13;;;;;;;19.70;13.15;;;11.40;99.90;;;;;;4999432;28;20056;-75
2023/03/13 05:37:59;;;;;;;23.40;14.10;;;11.40;99.90;;;;;;5003867;28;20061;-75
2023/03/13 05:40:57;;;;;;;20.05;12.40;;;11.40;99.90;;;;;;4985913;28;20073;-75
2023/03/13 05:43:47;;;;;;;22.02;13.70;;;11.40;99.90;;;;;;5002810;28;20041;-75
2023/03/13 05:46:29;;;;;;;19.52;12.10;;;11.50;99.90;;;;;;4992953;28;20044;-77
2023/03/13 05:49:09;;;;;;;20.65;12.40;;;11.50;99.90;;;;;;5007823;28;20412;-76
2023/03/13 05:52:05;;;;;;;21.30;12.68;;;11.50;99.90;;;;;;4964715;28;20041;-76
2023/03/13 05:54:37;;;;;;;18.38;12.43;;;11.50;99.90;;;;;;5012441;28;20069;-76
2023/03/13 05:57:19;;;;;;;19.83;12.35;;;11.50;99.90;;;;;;5019479;28;20045;-76
2023/03/13 06:00:06;;;;;;;18.25;13.13;;;11.50;99.90;;;;;;5012643;28;20053;-75
2023/03/13 06:02:51;;;;;;;19.85;13.73;;;11.50;99.90;;;;;;5013624;28;20041;-75
2023/03/13 06:05:24;;;;;;;19.58;12.65;;;11.50;99.90;;;;;;5008843;28;20061;-75
2023/03/13 06:07:51;;;;;;;19.85;12.63;;;11.50;99.90;;;;;;4990833;28;21159;-76
2023/03/13 06:10:18;;;;;;;19.77;12.07;;;11.50;99.90;;;;;;5008187;28;20037;-75
2023/03/13 06:12:52;;;;;;;18.08;11.50;;;11.60;99.90;;;;;;4998275;28;20052;-74
2023/03/13 06:15:18;;;;;;;19.85;12.60;;;11.60;99.90;;;;;;5011111;28;20726;-75
2023/03/13 06:18:07;;;;;;;14.40;9.27;;;11.60;99.90;;;;;;4990006;28;20045;-76
2023/03/13 06:20:34;;;;;;;18.48;11.75;;;11.60;99.90;;;;;;4980344;28;20044;-75
2023/03/13 06:23:00;;;;;;;13.13;10.25;;;11.60;99.90;;;;;;5010513;28;20055;-75
2023/03/13 06:25:26;;;;;;;16.27;11.00;;;11.60;99.90;;;;;;5010864;28;20381;-75
2023/03/13 06:27:53;;;;;;;14.40;10.85;;;11.60;99.90;;;;;;4994353;28;20037;-76
2023/03/13 06:30:19;;;;;;;16.02;9.85;;;11.60;99.90;;;;;;4991361;28;20040;-75
2023/03/13 06:32:45;;;;;;;19.95;11.85;;;11.60;99.90;;;;;;4983785;28;20467;-77
2023/03/13 06:35:12;;;;;;;14.60;9.45;;;11.70;99.90;;;;;;5013200;28;20061;-75
2023/03/13 06:37:38;;;;;;;12.32;9.35;;;11.70;99.90;;;;;;5012071;28;20029;-76
2023/03/13 06:40:05;;;;;;;13.52;9.40;;;11.70;99.90;;;;;;4989374;28;20400;-76
2023/03/13 06:42:32;;;;;;;12.68;9.13;;;11.70;99.90;;;;;;5012339;28;20496;-76
2023/03/13 06:44:58;;;;;;;18.48;9.15;;;11.70;99.90;;;;;;5014334;28;20033;-75
2023/03/13 06:47:24;;;;;;;13.35;8.85;;;11.70;99.90;;;;;;5034200;28;20057;-75
2023/03/13 06:49:50;;;;;;;15.73;8.45;;;11.80;99.90;;;;;;5004732;28;20054;-76
2023/03/13 06:52:17;;;;;;;11.35;7.57;;;11.80;99.90;;;;;;5013512;28;20053;-76
2023/03/13 06:54:43;;;;;;;12.98;7.57;;;11.80;99.90;;;;;;5015497;28;20537;-75
2023/03/13 06:57:10;;;;;;;14.75;8.15;;;11.80;99.90;;;;;;5013529;28;20103;-76
2023/03/13 06:59:36;;;;;;;14.43;6.90;;;11.80;99.90;;;;;;5007935;28;20053;-76
2023/03/13 07:02:02;;;;;;;13.60;6.50;;;11.90;99.90;;;;;;5015184;28;20477;-76
2023/03/13 07:04:29;;;;;;;12.00;6.75;;;11.90;99.90;;;;;;4993514;28;21032;-75
2023/03/13 07:06:55;;;;;;;11.00;6.15;;;11.90;99.90;;;;;;4997373;28;20049;-77
2023/03/13 07:09:22;;;;;;;9.73;6.25;;;11.90;99.90;;;;;;5007240;28;20049;-75
2023/03/13 07:11:48;;;;;;;11.48;6.15;;;11.90;99.90;;;;;;4997151;28;20037;-78
2023/03/13 07:14:15;;;;;;;13.75;7.10;;;11.90;99.90;;;;;;5017581;28;20058;-75
2023/03/13 07:16:41;;;;;;;14.32;6.70;;;12.00;99.90;;;;;;4995402;28;20041;-75
2023/03/13 07:19:07;;;;;;;15.18;6.53;;;12.00;99.90;;;;;;4988886;28;20033;-77
2023/03/13 07:21:34;;;;;;;13.38;5.80;;;12.00;99.90;;;;;;5013477;28;20037;-74
2023/03/13 07:24:01;;;;;;;15.73;6.38;;;12.00;99.90;;;;;;5006828;28;21684;-76
2023/03/13 07:26:27;;;;;;;15.95;5.50;;;12.10;99.90;;;;;;5000864;28;20037;-76
2023/03/13 07:28:54;;;;;;;12.88;5.72;;;12.10;99.90;;;;;;4990519;28;20516;-76
2023/03/13 07:31:23;;;;;;;10.60;5.85;;;12.10;99.90;;;;;;4992418;28;20037;-76
2023/03/13 07:33:51;;;;;;;12.80;5.53;;;12.20;99.90;;;;;;4995884;28;20038;-76
2023/03/13 07:36:18;;;;;;;16.27;5.35;;;12.20;99.90;;;;;;5011109;28;20036;-76
2023/03/13 07:38:51;;;;;;;10.30;5.57;;;12.20;99.90;;;;;;5001630;28;20512;-77
2023/03/13 07:41:19;;;;;;;11.13;5.07;;;12.30;99.90;;;;;;5012177;28;20048;-76
2023/03/13 07:43:46;;;;;;;13.07;4.85;;;12.30;99.90;;;;;;5013942;28;20396;-77
2023/03/13 07:46:17;;;;;;;13.73;4.60;;;12.30;99.90;;;;;;5011726;28;20044;-77
2023/03/13 07:48:44;;;;;;;11.60;5.20;;;12.40;99.90;;;;;;4985736;28;20044;-75
2023/03/13 07:51:15;;;;;;;10.00;4.28;;;12.40;99.90;;;;;;5011594;28;20042;-76
2023/03/13 07:53:43;;;;;;;10.20;4.65;;;12.40;99.90;;;;;;5012851;28;20048;-76
2023/03/13 07:56:11;;;;;;;8.68;4.70;;;12.40;99.90;;;;;;5009581;28;20838;-76
2023/03/13 07:58:39;;;;;;;10.05;4.53;;;12.50;99.90;;;;;;4991072;28;20614;-78
2023/03/13 08:01:09;;;;;;;10.90;4.43;;;12.50;99.90;;;;;;5007738;28;20051;-76
2023/03/13 08:03:36;;;;;;;10.88;4.53;;;12.50;99.90;;;;;;4993888;28;20480;-76
2023/03/13 08:06:06;;;;;;;10.70;4.70;;;12.50;99.90;;;;;;5009738;28;20036;-76
2023/03/13 08:08:33;;;;;;;13.60;4.10;;;12.50;99.90;;;;;;4988238;28;20041;-75
2023/03/13 08:11:11;;;;;;;13.82;4.82;;;12.50;99.90;;;;;;5004686;28;20033;-75
2023/03/13 08:13:40;;;;;;;13.38;4.60;;;12.50;99.90;;;;;;4994178;28;20044;-75
2023/03/13 08:16:16;;;;;;;8.30;3.63;;;12.50;99.90;;;;;;5008447;28;20551;-76
2023/03/13 08:18:45;;;;;;;11.50;4.60;;;12.50;99.90;;;;;;4984909;28;20338;-75
2023/03/13 08:21:17;;;;;;;11.05;4.07;;;12.40;99.90;;;;;;4989661;28;20048;-76
2023/03/13 08:23:44;;;;;;;;;;;12.40;99.90;;;;;;4979268;28;20040;-76
2023/03/13 08:26:16;;;;;;;9.50;3.85;;;12.50;99.90;;;;;;5011892;28;19917;-76
2023/03/13 08:28:44;;;;;;;9.98;4.65;;;12.50;99.90;;;;;;4986161;28;20060;-76
2023/03/13 08:31:12;;;;;;;8.68;4.05;;;12.60;99.90;;;;;;4998477;28;20348;-76
2023/03/13 08:33:39;;;;;;;7.68;4.07;;;12.70;99.90;;;;;;4999714;28;20044;-76
2023/03/13 08:36:17;;;;;;;11.10;3.92;;;12.70;99.90;;;;;;5009448;28;20056;-75
2023/03/13 08:38:45;;;;;;;9.48;4.05;;;12.90;99.90;;;;;;4978756;28;20033;-76
2023/03/13 08:41:14;;;;;;;10.88;4.00;;;12.90;99.90;;;;;;5006371;28;20037;-76
2023/03/13 08:43:40;;;;;;;8.75;2.95;;;13.00;99.90;;;;;;5009173;28;20049;-75
2023/03/13 08:46:07;;;;;;;7.90;3.70;;;13.00;99.90;;;;;;5009643;28;20049;-76
2023/03/13 08:48:33;;;;;;;8.60;3.65;;;13.00;99.90;;;;;;5003351;28;20046;-75
2023/03/13 08:51:14;;;;;;;9.50;3.65;;;13.00;99.90;;;;;;5011283;28;20408;-75
2023/03/13 08:53:42;;;;;;;7.63;3.30;;;12.90;99.90;;;;;;5029977;28;20081;-76
2023/03/13 08:56:10;;;;;;;9.65;3.10;;;12.90;99.90;;;;;;5009137;28;20032;-75
2023/03/13 08:58:37;;;;;;;11.10;4.03;;;12.90;99.90;;;;;;5005019;28;20045;-75
2023/03/13 09:01:06;;;;;;;7.55;3.45;;;12.80;99.90;;;;;;5008864;28;20049;-75
2023/03/13 09:03:32;;;;;;;6.32;3.63;;;12.90;99.90;;;;;;5012574;28;20041;-76
2023/03/13 09:05:59;;;;;;;6.32;2.78;;;13.00;99.90;;;;;;4996927;28;20033;-75
2023/03/13 09:08:27;;;;;;;8.88;3.63;;;13.10;99.90;;;;;;4972980;28;20052;-75
2023/03/13 09:10:58;;;;;;;9.90;3.50;;;13.30;99.90;;;;;;5008010;28;20407;-74
2023/03/13 09:13:26;;;;;;;11.07;2.83;;;13.50;99.90;;;;;;5008512;28;20371;-76
2023/03/13 09:15:58;;;;;;;6.55;3.38;;;13.60;99.90;;;;;;4999770;28;20045;-75
2023/03/13 09:18:24;;;;;;;8.32;3.33;;;13.90;99.90;;;;;;4993595;28;20038;-75
2023/03/13 09:20:51;;;;;;;7.32;2.10;;;14.10;99.90;;;;;;4980305;28;20546;-76
2023/03/13 09:23:18;;;;;;;5.97;2.53;;;14.10;99.90;;;;;;5007403;28;20589;-76
2023/03/13 09:25:45;;;;;;;6.65;2.42;;;14.10;99.90;;;;;;5008207;28;20045;-76
2023/03/13 09:28:11;;;;;;;6.15;1.77;;;14.10;99.90;;;;;;4979595;28;20037;-76
2023/03/13 09:30:39;;;;;;;5.80;2.35;;;14.10;99.90;;;;;;5005537;28;20198;-76
2023/03/13 09:33:05;;;;;;;6.75;1.52;;;14.10;99.90;;;;;;5009772;28;20036;-76
2023/03/13 09:35:32;;;;;;;3.65;1.98;;;14.10;99.90;;;;;;4981772;28;20044;-76
2023/03/13 09:37:58;;;;;;;8.32;1.58;;;14.10;99.90;;;;;;5007008;28;20131;-76
2023/03/13 09:40:26;;;;;;;6.57;1.58;;;14.20;99.90;;;;;;5003901;28;20036;-77
2023/03/13 09:42:58;;;;;;;5.40;1.35;;;14.20;99.90;;;;;;4994340;28;20040;-76
2023/03/13 09:45:35;;;;;;;4.90;1.17;;;14.20;99.90;;;;;;4980746;28;20504;-77
2023/03/13 09:48:23;;;;;;;3.53;1.10;;;14.30;99.90;;;;;;5022659;28;20063;-77
2023/03/13 09:51:00;;;;;;;5.25;1.42;;;14.50;99.90;;;;;;5008033;28;21215;-77
2023/03/13 09:53:37;;;;;;;6.78;1.48;;;14.50;99.90;;;;;;5008428;28;20056;-77
2023/03/13 09:56:10;;;;;;;5.20;1.30;;;14.50;99.90;;;;;;5015117;28;20447;-77
2023/03/13 09:58:42;;;;;;;4.60;1.15;;;14.50;99.90;;;;;;5009891;28;20404;-76
2023/03/13 10:01:10;;;;;;;3.78;1.02;;;14.50;99.90;;;;;;5010401;28;20052;-77
2023/03/13 10:03:47;;;;;;;5.90;1.40;;;14.50;99.90;;;;;;5023269;28;20045;-76
2023/03/13 10:06:18;;;;;;;3.88;1.20;;;14.50;99.90;;;;;;4989061;28;20036;-78
2023/03/13 10:08:44;;;;;;;7.47;2.00;;;14.50;99.90;;;;;;5004647;28;20067;-77
2023/03/13 10:11:26;;;;;;;8.75;1.85;;;14.50;99.90;;;;;;5013252;28;20055;-77
2023/03/13 10:14:30;;;;;;;4.60;1.52;;;14.60;99.90;;;;;;5017080;28;20056;-77
2023/03/13 10:17:29;;;;;;;6.35;1.50;;;14.70;99.90;;;;;;5008164;28;20084;-76
2023/03/13 10:20:00;;;;;;;5.65;1.35;;;14.70;99.90;;;;;;4996486;28;20512;-77
2023/03/13 10:22:29;;;;;;;5.75;0.98;;;14.70;99.90;;;;;;4970392;28;20037;-78
2023/03/13 10:25:10;;;;;;;6.30;1.10;;;14.60;99.90;;;;;;5015089;28;20583;-76
2023/03/13 10:27:50;;;;;;;8.40;1.27;;;14.70;99.90;;;;;;5018541;28;20033;-76
2023/03/13 10:30:27;;;;;;;5.47;1.42;;;14.80;99.90;;;;;;5015705;28;20049;-76
2023/03/13 10:33:26;;;;;;;3.90;1.20;;;14.90;99.90;;;;;;5017907;28;20056;-76
2023/03/13 10:36:09;;;;;;;4.22;0.90;;;14.90;99.90;;;;;;5016322;28;20057;-76
2023/03/13 10:38:50;;;;;;;3.65;0.90;;;14.90;99.90;;;;;;5011989;28;20037;-76
2023/03/13 10:41:34;;;;;;;3.95;1.00;;;14.90;99.90;;;;;;5012862;28;20037;-76
2023/03/13 10:44:04;;;;;;;4.05;1.00;;;14.90;99.90;;;;;;5022793;28;20041;-76
2023/03/13 10:46:32;;;;;;;3.55;0.90;;;15.00;99.90;;;;;;4999865;28;20559;-76
2023/03/13 10:49:12;;;;;;;5.15;0.90;;;15.10;99.90;;;;;;5008049;28;20060;-76
2023/03/13 10:51:39;;;;;;;4.50;0.98;;;15.20;99.90;;;;;;5013106;28;20460;-76
2023/03/13 10:54:30;;;;;;;5.95;1.02;;;15.40;99.90;;;;;;5036341;28;20443;-77
2023/03/13 10:57:50;;;;;;;4.22;0.80;;;15.50;99.90;;;;;;5012331;28;20044;-76
2023/03/13 11:00:30;;;;;;;6.03;0.82;;;15.60;99.90;;;;;;4993760;28;20053;-77
2023/03/13 11:02:56;;;;;;;4.95;1.08;;;15.70;99.90;;;;;;5012109;28;20444;-76
2023/03/13 11:05:22;;;;;;;4.03;0.70;;;15.80;99.90;;;;;;5011085;28;20053;-76
2023/03/13 11:07:49;;;;;;;3.80;0.98;;;15.80;99.90;;;;;;5012950;28;20045;-77
2023/03/13 11:10:23;;;;;;;3.22;0.60;;;15.90;99.90;;;;;;5007623;28;20053;-77
2023/03/13 11:12:51;;;;;;;4.10;0.90;;;15.90;99.90;;;;;;5008940;28;20054;-76
2023/03/13 11:15:33;;;;;;;4.35;1.02;;;16.00;99.90;;;;;;4998311;28;20594;-76
2023/03/13 11:18:17;;;;;;;4.43;0.82;;;16.30;99.90;;;;;;4995821;28;20057;-78
2023/03/13 11:20:45;;;;;;;3.33;0.75;;;16.30;99.90;;;;;;5009515;28;20408;-78
2023/03/13 11:23:32;;;;;;;2.67;0.50;;;16.20;99.90;;;;;;4996425;28;20495;-79
2023/03/13 11:26:28;;;;;;;3.72;0.68;;;16.50;99.90;;;;;;5027001;28;20511;-78
2023/03/13 11:29:15;;;;;;;3.38;0.80;;;16.90;99.90;;;;;;4975716;28;21006;-78
2023/03/13 11:31:49;;;;;;;2.78;0.70;;;17.10;99.90;;;;;;5002314;28;20032;-78
2023/03/13 11:34:42;;;;;;;4.10;0.70;;;17.10;99.90;;;;;;5001616;28;20045;-78
2023/03/13 11:37:10;;;;;;;5.13;0.65;;;17.30;99.90;;;;;;5016943;28;20037;-78
2023/03/13 11:39:45;;;;;;;3.58;0.60;;;17.30;99.90;;;;;;4968784;28;20049;-77
2023/03/13 11:42:30;;;;;;;4.32;0.65;;;17.60;99.90;;;;;;5007467;28;20540;-79
2023/03/13 11:45:02;;;;;;;3.90;0.90;;;17.70;99.90;;;;;;4996646;28;21157;-79
2023/03/13 19:28:00;;;;;;;11.27;1.40;;;12.60;99.90;;;;;;5026253;22;20061;-73
2023/03/13 19:42:21;;;;;;;10.98;1.55;;;12.30;99.90;;;;;;4971170;22;20060;-72
2023/03/13 19:44:47;;;;;;;9.40;1.50;;;12.20;99.90;;;;;;5003102;28;20056;-74
2023/03/13 19:47:17;;;;;;;7.70;1.20;;;12.20;99.90;;;;;;5004546;28;20472;-76
2023/03/13 19:49:44;;;;;;;7.57;1.20;;;12.20;99.90;;;;;;4993829;28;20037;-74
2023/03/13 19:52:10;;;;;;;10.60;2.20;;;12.10;99.90;;;;;;5008467;28;20047;-76
2023/03/13 19:54:36;;;;;;;9.38;1.33;;;12.10;99.90;;;;;;5018195;28;20495;-76
2023/03/13 19:57:03;;;;;;;11.63;2.20;;;12.00;99.90;;;;;;4984477;28;20416;-74
2023/03/13 19:59:30;;;;;;;11.55;1.58;;;11.90;99.90;;;;;;4979054;28;20476;-76
2023/03/13 20:01:58;;;;;;;7.65;1.65;;;11.80;99.90;;;;;;5003001;28;20037;-73
2023/03/13 20:04:26;;;;;;;7.55;1.10;;;11.70;99.90;;;;;;4990898;28;20499;-73
2023/03/13 20:06:52;;;;;;;4.15;1.13;;;11.70;99.90;;;;;;5021819;28;20033;-75
2023/03/13 20:09:22;;;;;;;6.82;1.25;;;11.50;99.90;;;;;;4995324;28;20361;-73
2023/03/13 20:11:48;;;;;;;12.65;2.13;;;11.50;99.90;;;;;;5002344;28;20861;-74
2023/03/13 20:14:14;;;;;;;9.50;2.17;;;11.50;99.90;;;;;;5002820;28;20488;-75
2023/03/13 20:16:41;;;;;;;12.07;3.08;;;11.50;99.90;;;;;;5009115;28;20045;-74
2023/03/13 20:19:07;;;;;;;10.63;2.75;;;11.50;99.90;;;;;;5002819;28;20483;-74
2023/03/13 20:21:35;;;;;;;20.45;9.77;;;11.60;99.90;;;;;;5020894;28;20053;-75
2023/03/13 20:24:20;;;;;;;24.42;11.63;;;11.60;99.90;;;;;;5018360;28;20048;-74
2023/03/13 20:26:46;;;;;;;22.20;8.80;;;11.70;99.90;;;;;;5002872;28;20931;-75
2023/03/13 20:29:13;;;;;;;17.92;7.30;;;11.70;99.90;;;;;;4996963;28;20036;-75
2023/03/13 20:31:39;;;;;;;17.60;5.65;;;11.70;99.90;;;;;;5005037;28;20033;-76
2023/03/13 20:34:05;;;;;;;14.77;5.20;;;11.80;99.90;;;;;;5003522;28;20048;-76
2023/03/13 20:36:32;;;;;;;14.95;5.13;;;11.90;99.90;;;;;;5001443;28;20060;-75
2023/03/13 20:38:58;;;;;;;13.88;3.55;;;11.90;99.90;;;;;;5013653;28;20044;-75
2023/03/13 20:41:29;;;;;;;14.13;3.25;;;11.90;99.90;;;;;;5003185;28;20060;-76
2023/03/13 20:43:56;;;;;;;12.73;5.63;;;11.90;99.90;;;;;;5008270;28;20830;-75
2023/03/13 20:46:22;;;;;;;13.55;5.35;;;11.90;99.90;;;;;;5007423;28;20044;-75
2023/03/13 20:48:48;;;;;;;13.57;5.50;;;11.90;99.90;;;;;;4995832;28;20033;-76
2023/03/13 20:51:15;;;;;;;11.95;3.70;;;11.90;99.90;;;;;;5003826;28;20043;-75
2023/03/13 20:53:42;;;;;;;14.82;3.85;;;11.90;99.90;;;;;;5016179;28;20370;-77
2023/03/13 20:56:10;;;;;;;12.48;3.17;;;11.90;99.90;;;;;;4995865;28;20451;-75
2023/03/13 20:58:37;;;;;;;15.13;3.35;;;11.80;99.90;;;;;;4988806;28;21121;-76